createdAt,value
2022-11-15T00:04:07.001Z,9.27
2022-11-15T00:12:33.199Z,9.28
2022-11-15T00:44:52.751Z,9.22
2022-11-15T01:00:18.405Z,9.45
2022-11-15T01:04:01.268Z,9.72
2022-11-15T03:08:30.278Z,11.52
2022-11-15T07:35:01.358Z,9.38
2022-11-15T07:39:08.014Z,9.40
2022-11-15T08:15:43.900Z,11.70
2022-11-15T08:18:39.279Z,11.98
2022-11-15T08:21:32.385Z,12.36
2022-11-15T08:24:32.798Z,12.28
2022-11-15T08:27:27.648Z,12.80
2022-11-15T08:30:17.186Z,13.39
2022-11-15T08:33:05.904Z,13.49
2022-11-15T08:35:52.642Z,13.56
2022-11-15T08:38:39.382Z,14.49
2022-11-15T08:41:28.753Z,14.73
2022-11-15T08:44:15.383Z,14.89
2022-11-15T08:47:02.282Z,14.92
2022-11-15T08:49:50.238Z,15.05
2022-11-15T08:52:36.724Z,15.06
2022-11-15T08:55:24.853Z,14.89
2022-11-15T08:58:11.595Z,15.05
2022-11-15T09:00:57.995Z,15.33
2022-11-15T09:03:44.653Z,15.78
2022-11-15T09:06:32.676Z,16.55
2022-11-15T09:09:19.174Z,17.15
2022-11-15T09:12:06.110Z,17.24
2022-11-15T09:14:52.469Z,17.14
2022-11-15T09:17:38.933Z,17.18
2022-11-15T09:20:25.489Z,17.41
2022-11-15T09:23:13.541Z,17.26
2022-11-15T09:26:02.694Z,17.29
2022-11-15T09:28:49.377Z,17.41
2022-11-15T09:31:35.659Z,17.76
2022-11-15T09:34:21.992Z,18.21
2022-11-15T09:37:12.146Z,18.43
2022-11-15T09:40:00.274Z,18.50
2022-11-15T09:43:06.877Z,19.19
2022-11-15T09:46:04.031Z,18.97
2022-11-15T09:49:00.153Z,18.53
2022-11-15T09:51:32.141Z,17.99
2022-11-15T09:54:50.903Z,18.85
2022-11-15T09:57:11.658Z,19.78
2022-11-15T10:00:01.372Z,20.08
2022-11-15T10:02:54.987Z,20.07
2022-11-15T10:05:25.748Z,19.87
2022-11-15T10:08:03.074Z,19.68
2022-11-15T10:10:38.680Z,19.70
2022-11-15T10:13:17.788Z,19.87
2022-11-15T10:15:48.639Z,19.99
2022-11-15T10:18:19.119Z,20.52
2022-11-15T10:20:50.642Z,20.78
2022-11-15T10:23:21.948Z,21.28
2022-11-15T10:25:53.621Z,22.16
2022-11-15T10:28:28.653Z,22.42
2022-11-15T10:30:58.240Z,22.11
2022-11-15T10:33:36.699Z,22.33
2022-11-15T10:36:23.206Z,22.90
2022-11-15T10:38:57.880Z,23.49
2022-11-15T10:44:26.581Z,24.09
2022-11-15T10:47:23.590Z,25.19
2022-11-15T10:50:04.814Z,26.23
2022-11-15T10:52:36.752Z,27.15
2022-11-15T10:55:22.185Z,26.23
2022-11-15T10:57:53.658Z,24.57
2022-11-15T11:00:35.926Z,23.19
2022-11-15T11:03:06.713Z,22.47
2022-11-15T11:05:41.749Z,22.06
2022-11-15T11:08:24.126Z,21.67
2022-11-15T11:11:02.604Z,21.12
2022-11-15T11:13:36.072Z,20.16
2022-11-15T11:16:39.214Z,19.55
2022-11-15T11:19:32.497Z,18.37
2022-11-15T11:22:06.115Z,18.38
2022-11-15T11:24:38.629Z,17.74
2022-11-15T11:27:20.664Z,17.96
2022-11-15T11:30:04.253Z,17.70
2022-11-15T11:32:51.346Z,17.59
2022-11-15T11:35:28.310Z,17.13
2022-11-15T11:38:16.275Z,17.70
2022-11-15T11:40:52.443Z,18.04
2022-11-15T11:43:27.987Z,18.70
2022-11-15T11:46:20.295Z,18.96
2022-11-15T11:48:53.582Z,19.11
2022-11-15T11:51:27.835Z,19.52
2022-11-15T11:53:59.458Z,20.57
2022-11-15T11:56:30.947Z,20.74
2022-11-15T11:59:07.767Z,20.64
2022-11-15T12:01:39.694Z,20.34
2022-11-15T12:04:15.858Z,19.78
2022-11-15T12:06:50.307Z,19.57
2022-11-15T12:09:23.868Z,19.08
2022-11-15T12:12:00.289Z,18.71
2022-11-15T12:14:35.151Z,18.39
2022-11-15T12:17:03.319Z,17.87
2022-11-15T12:19:32.999Z,17.50
2022-11-15T12:22:06.909Z,17.10
2022-11-15T12:24:40.074Z,16.60
2022-11-15T12:27:20.628Z,16.87
2022-11-15T12:29:56.553Z,16.43
2022-11-15T12:32:30.445Z,16.14
2022-11-15T12:35:01.289Z,16.80
2022-11-15T12:37:51.452Z,16.94
2022-11-15T12:40:25.574Z,17.06
2022-11-15T12:43:35.224Z,17.05
2022-11-15T12:46:08.147Z,16.38
2022-11-15T12:48:57.695Z,16.66
2022-11-15T12:52:04.388Z,16.45
2022-11-15T12:55:03.942Z,16.29
2022-11-15T12:57:45.435Z,15.99
2022-11-15T13:00:57.354Z,16.13
2022-11-15T13:03:32.336Z,16.07
2022-11-15T13:06:32.030Z,15.93
2022-11-15T13:08:59.910Z,14.93
2022-11-15T13:11:55.361Z,15.69
2022-11-15T13:14:52.931Z,15.66
2022-11-15T13:17:34.524Z,15.59
2022-11-15T13:20:25.797Z,15.52
2022-11-15T13:23:00.225Z,15.51
2022-11-15T13:26:16.896Z,15.43
2022-11-15T13:28:49.604Z,15.02
2022-11-15T13:31:39.630Z,15.43
2022-11-15T13:34:49.893Z,15.39
2022-11-15T13:37:29.442Z,14.62
2022-11-15T13:40:11.899Z,14.96
2022-11-15T13:42:45.502Z,15.33
2022-11-15T13:45:18.403Z,14.62
2022-11-15T13:47:46.404Z,14.24
2022-11-15T13:50:14.871Z,15.05
2022-11-15T13:52:46.844Z,15.13
2022-11-15T13:55:17.297Z,15.18
2022-11-15T13:57:47.561Z,15.10
2022-11-15T14:00:34.040Z,15.00
2022-11-15T14:03:09.229Z,14.96
2022-11-15T14:05:37.300Z,14.68
2022-11-15T14:08:14.986Z,14.67
2022-11-15T14:10:43.014Z,14.88
2022-11-15T14:13:29.458Z,14.88
2022-11-15T14:16:14.882Z,14.86
2022-11-15T14:18:45.519Z,14.88
2022-11-15T14:21:13.509Z,14.78
2022-11-15T14:23:41.470Z,14.84
2022-11-15T14:26:30.153Z,14.83
2022-11-15T14:28:58.104Z,14.82
2022-11-15T14:31:27.302Z,14.78
2022-11-15T14:33:55.451Z,14.74
2022-11-15T14:36:23.472Z,14.70
2022-11-15T14:38:51.551Z,14.14
2022-11-15T14:41:22.575Z,14.60
2022-11-15T14:43:51.557Z,14.79
2022-11-15T14:46:20.770Z,14.79
2022-11-15T14:48:51.470Z,14.15
2022-11-15T14:51:20.713Z,14.70
2022-11-15T14:53:50.316Z,14.65
2022-11-15T14:56:18.631Z,14.59
2022-11-15T14:58:47.403Z,14.53
2022-11-15T15:01:19.952Z,14.50
2022-11-15T15:03:47.844Z,14.46
2022-11-15T15:06:18.516Z,14.43
2022-11-15T15:08:46.890Z,14.39
2022-11-15T15:11:18.302Z,14.37
2022-11-15T15:13:46.062Z,14.34
2022-11-15T15:16:13.767Z,14.30
2022-11-15T15:18:41.567Z,14.30
2022-11-15T15:21:22.122Z,14.24
2022-11-15T15:23:50.161Z,14.19
2022-11-15T15:26:18.297Z,14.01
2022-11-15T15:28:46.159Z,14.15
2022-11-15T15:31:13.947Z,14.11
2022-11-15T15:33:41.785Z,14.07
2022-11-15T15:36:13.087Z,14.04
2022-11-15T15:38:42.959Z,13.92
2022-11-15T15:41:12.776Z,13.99
2022-11-15T15:43:41.260Z,13.97
2022-11-15T15:46:12.003Z,13.95
2022-11-15T15:48:40.428Z,13.94
2022-11-15T15:51:17.042Z,13.60
2022-11-15T15:53:51.552Z,13.88
2022-11-15T15:56:19.298Z,13.84
2022-11-15T15:58:47.083Z,13.78
2022-11-15T16:01:14.908Z,13.66
2022-11-15T16:03:42.739Z,13.73
2022-11-15T16:06:34.312Z,13.73
2022-11-15T16:09:19.476Z,13.50
2022-11-15T16:11:48.187Z,13.46
2022-11-15T16:14:16.010Z,13.61
2022-11-15T16:16:44.155Z,13.59
2022-11-15T16:19:14.591Z,13.66
2022-11-15T16:21:43.139Z,13.68
2022-11-15T16:24:12.604Z,13.69
2022-11-15T16:26:40.988Z,13.58
2022-11-15T16:29:10.216Z,13.65
2022-11-15T16:31:38.192Z,13.64
2022-11-15T16:34:07.139Z,13.61
2022-11-15T16:36:36.465Z,13.60
2022-11-15T16:39:18.073Z,13.60
2022-11-15T16:41:48.153Z,13.50
2022-11-15T16:44:17.440Z,13.36
2022-11-15T16:46:51.855Z,13.47
2022-11-15T16:49:21.173Z,13.52
2022-11-15T16:51:52.228Z,12.99
2022-11-15T16:55:18.515Z,13.34
2022-11-15T16:57:53.741Z,12.96
2022-11-15T17:00:24.282Z,13.34
2022-11-15T17:02:53.703Z,13.32
2022-11-15T17:05:27.367Z,13.31
2022-11-15T17:07:55.465Z,12.74
2022-11-15T17:10:27.306Z,13.29
2022-11-15T17:12:57.059Z,13.29
2022-11-15T17:15:29.896Z,13.29
2022-11-15T17:17:58.375Z,13.29
2022-11-15T17:20:26.720Z,12.73
2022-11-15T17:22:54.649Z,13.24
2022-11-15T17:25:23.763Z,13.04
2022-11-15T17:27:51.586Z,13.14
2022-11-15T17:30:20.393Z,13.36
2022-11-15T17:32:49.688Z,13.39
2022-11-15T17:35:17.571Z,13.37
2022-11-15T17:37:45.389Z,13.34
2022-11-15T17:40:13.783Z,13.35
2022-11-15T17:42:43.229Z,13.15
2022-11-15T17:45:12.227Z,13.37
2022-11-15T17:47:43.219Z,13.09
2022-11-15T17:50:11.779Z,13.31
2022-11-15T17:52:40.281Z,12.61
2022-11-15T17:55:14.818Z,12.66
2022-11-15T17:57:45.537Z,12.47
2022-11-15T18:00:15.000Z,12.31
2022-11-15T18:02:43.046Z,12.22
2022-11-15T18:05:10.939Z,13.29
2022-11-15T18:07:38.942Z,12.90
2022-11-15T18:10:12.616Z,13.06
2022-11-15T18:12:40.597Z,12.51
2022-11-15T18:15:19.156Z,13.19
2022-11-15T18:17:47.102Z,13.04
2022-11-15T18:20:15.079Z,13.15
2022-11-15T18:22:52.297Z,13.10
2022-11-15T18:25:20.268Z,13.04
2022-11-15T18:27:53.033Z,12.98
2022-11-15T18:30:24.276Z,12.90
2022-11-15T18:32:53.855Z,12.91
2022-11-15T18:35:23.731Z,12.91
2022-11-15T18:37:51.977Z,12.41
2022-11-15T18:40:19.781Z,13.01
2022-11-15T18:42:48.090Z,12.39
2022-11-15T18:45:21.502Z,12.97
2022-11-15T18:47:53.928Z,12.75
2022-11-15T18:50:22.035Z,12.41
2022-11-15T18:52:51.284Z,12.70
2022-11-15T18:55:19.606Z,12.71
2022-11-15T18:57:57.600Z,12.67
2022-11-15T19:00:29.928Z,12.30
2022-11-15T19:02:59.619Z,12.77
2022-11-15T19:05:28.510Z,12.39
2022-11-15T19:07:57.150Z,12.75
2022-11-15T19:10:25.202Z,12.61
2022-11-15T19:12:54.146Z,12.71
2022-11-15T19:15:24.907Z,12.52
2022-11-15T19:17:53.583Z,12.61
2022-11-15T19:24:30.967Z,12.50
2022-11-15T19:27:01.902Z,10.97
2022-11-15T19:29:30.989Z,11.86
2022-11-15T19:32:01.071Z,12.42
2022-11-15T19:34:31.110Z,12.16
2022-11-15T19:37:01.220Z,12.41
2022-11-15T19:39:31.418Z,11.99
2022-11-15T19:42:02.055Z,12.33
2022-11-15T19:44:32.420Z,10.47
2022-11-15T19:47:02.694Z,10.62
2022-11-15T19:49:33.149Z,11.55
2022-11-15T19:52:03.021Z,11.67
2022-11-15T19:54:37.676Z,11.22
2022-11-15T19:57:09.511Z,11.61
2022-11-15T19:59:39.377Z,11.65
2022-11-15T20:02:08.854Z,11.82
2022-11-15T20:04:38.145Z,12.30
2022-11-15T20:07:09.835Z,11.14
2022-11-15T20:09:40.279Z,11.95
2022-11-15T20:12:11.930Z,12.38
2022-11-15T20:14:47.034Z,12.33
2022-11-15T20:17:47.175Z,10.58
2022-11-15T20:20:17.474Z,11.83
2022-11-15T20:22:47.929Z,11.43
2022-11-15T20:25:17.609Z,11.85
2022-11-15T20:27:48.051Z,11.78
2022-11-15T20:30:17.062Z,11.28
2022-11-15T20:32:46.244Z,12.28
2022-11-15T20:35:14.403Z,12.30
2022-11-15T20:37:42.417Z,11.74
2022-11-15T20:40:12.237Z,11.31
2022-11-15T20:42:41.010Z,12.21
2022-11-15T20:45:13.377Z,12.11
2022-11-15T20:47:41.790Z,11.58
2022-11-15T20:50:40.422Z,10.64
2022-11-15T20:52:59.012Z,11.74
2022-11-15T20:55:26.979Z,12.02
2022-11-15T20:57:55.312Z,11.88
2022-11-15T21:00:26.082Z,12.16
2022-11-15T21:02:54.181Z,12.14
2022-11-15T21:05:22.567Z,12.14
2022-11-15T21:07:51.518Z,11.56
2022-11-15T21:10:38.740Z,10.22
2022-11-15T21:13:07.171Z,11.08
2022-11-15T21:15:37.618Z,11.84
2022-11-15T21:18:06.909Z,12.22
2022-11-15T21:20:36.710Z,11.40
2022-11-15T21:23:05.675Z,11.23
2022-11-15T21:25:46.706Z,11.54
2022-11-15T21:31:41.494Z,12.25
2022-11-15T21:37:00.736Z,12.27
2022-11-15T21:39:32.536Z,12.28
2022-11-15T21:42:09.320Z,10.74
2022-11-15T21:51:55.751Z,10.57
2022-11-15T21:54:39.200Z,12.25
2022-11-15T21:57:08.900Z,11.61
2022-11-15T21:59:57.987Z,10.56
2022-11-15T22:02:26.095Z,11.59
2022-11-15T22:04:54.635Z,11.46
2022-11-15T22:07:24.400Z,11.59
2022-11-15T22:28:27.860Z,9.53
2022-11-15T22:38:14.599Z,12.00
2022-11-15T22:40:42.875Z,11.98
2022-11-15T22:43:12.770Z,11.85
2022-11-15T22:45:48.788Z,12.02
2022-11-15T22:48:16.590Z,12.04
2022-11-15T22:50:45.142Z,12.07
2022-11-15T22:53:14.253Z,12.05
2022-11-15T22:55:42.904Z,12.06
2022-11-15T22:58:11.232Z,12.06
2022-11-15T23:00:39.128Z,12.06
2022-11-15T23:03:06.852Z,12.08
2022-11-15T23:05:35.202Z,12.08
2022-11-15T23:08:02.949Z,12.07
2022-11-15T23:10:49.428Z,12.08
2022-11-15T23:13:17.213Z,11.89
2022-11-15T23:16:03.518Z,11.94
2022-11-15T23:18:34.731Z,12.08
2022-11-15T23:21:09.605Z,12.09
2022-11-15T23:23:36.715Z,12.03
2022-11-15T23:26:06.784Z,12.09
2022-11-15T23:28:35.898Z,12.05
2022-11-15T23:31:23.234Z,12.04
2022-11-15T23:33:59.828Z,11.74
2022-11-15T23:36:28.773Z,11.96
2022-11-15T23:38:57.020Z,11.94
2022-11-15T23:41:26.759Z,11.94
2022-11-15T23:43:54.524Z,11.43
2022-11-15T23:46:22.380Z,11.95
2022-11-15T23:48:50.108Z,11.97
2022-11-15T23:51:19.271Z,11.65
2022-11-15T23:53:47.077Z,11.94
2022-11-15T23:56:17.535Z,11.85
2022-11-15T23:58:47.507Z,11.89
